Terminal Aerodrome Forecast
Issued by NWS Corpus Christi, TX

Home | Current Version | Previous Version | Text Only | Print | Product List | Glossary On
Versions: 1 2 3 4 5 6 7 8 9 10 11 12 13 14 15
000
FTUS44 KCRP 272300
TAFVCT
TAF
KVCT 272329Z 2800/2824 16014G19KT P6SM SKC
     FM280100 16011KT P6SM SKC
     FM281000 VRB03KT 4SM BR FEW015
     FM281400 19011KT P6SM SCT018
     FM282000 17012KT P6SM FEW035=

USA.gov is the U.S. government's official web portal to all federal, state and local government web resources and services.